Time;durP1;ratioP1;P1;durP2;ratioP2;P2;SDS_P1;SDS_P2;PMS_P1;PMS_P2;Temp;Humidity;BMP_temperature;BMP_pressure;BME280_temperature;BME280_humidity;BME280_pressure;Samples;Min_cycle;Max_cycle;Signal;HPM_P1;HPM_P2
2023/09/25 00:01:55;;;;;;;2.77;2.00;;;;;;;;;;5094333;28;20204;-46
2023/09/25 00:04:25;;;;;;;2.10;1.90;;;;;;;;;;5076195;28;20172;-48
2023/09/25 00:06:51;;;;;;;2.57;1.90;;;;;;;;;;5075988;28;20182;-46
2023/09/25 00:09:17;;;;;;;3.43;1.90;;;;;;;;;;5092270;28;20204;-49
2023/09/25 00:11:44;;;;;;;4.17;2.23;;;;;;;;;;5076199;28;20199;-49
2023/09/25 00:14:10;;;;;;;4.73;1.77;;;;;;;;;;5076447;28;20191;-46
2023/09/25 00:16:37;;;;;;;3.30;1.90;;;;;;;;;;5077208;28;20199;-46
2023/09/25 00:19:04;;;;;;;3.87;1.90;;;;;;;;;;5076047;28;20183;-46
2023/09/25 00:21:30;;;;;;;2.00;1.70;;;;;;;;;;5076221;28;20299;-48
2023/09/25 00:23:56;;;;;;;2.47;2.20;;;;;;;;;;5093465;28;20548;-46
2023/09/25 00:26:22;;;;;;;3.20;1.83;;;;;;;;;;5076505;28;20520;-48
2023/09/25 00:28:48;;;;;;;4.27;1.83;;;;;;;;;;5075694;28;20170;-46
2023/09/25 00:31:14;;;;;;;1.60;1.50;;;;;;;;;;5075839;28;20339;-49
2023/09/25 00:33:40;;;;;;;3.40;2.30;;;;;;;;;;5075837;28;20216;-46
2023/09/25 00:36:06;;;;;;;4.07;1.57;;;;;;;;;;5093602;28;20255;-46
2023/09/25 00:38:33;;;;;;;2.97;1.77;;;;;;;;;;5093339;28;20184;-53
2023/09/25 00:40:59;;;;;;;4.13;2.00;;;;;;;;;;5076580;28;20180;-50
2023/09/25 00:43:26;;;;;;;7.10;2.83;;;;;;;;;;5075315;28;20176;-46
2023/09/25 00:45:52;;;;;;;2.77;2.37;;;;;;;;;;5076228;28;20580;-47
2023/09/25 00:48:26;;;;;;;3.93;2.50;;;;;;;;;;5074285;28;20222;-49
2023/09/25 00:50:53;;;;;;;1.83;1.73;;;;;;;;;;5074453;28;20234;-47
2023/09/25 00:53:19;;;;;;;2.43;1.93;;;;;;;;;;5075217;28;20172;-47
2023/09/25 00:55:45;;;;;;;3.60;2.13;;;;;;;;;;5093279;28;20449;-46
2023/09/25 00:58:12;;;;;;;2.50;2.30;;;;;;;;;;5076448;28;20164;-48
2023/09/25 01:00:38;;;;;;;2.63;2.10;;;;;;;;;;5074889;28;20168;-47
2023/09/25 01:03:06;;;;;;;3.17;2.17;;;;;;;;;;5075063;28;20236;-49
2023/09/25 01:05:33;;;;;;;2.93;1.80;;;;;;;;;;5075251;28;20172;-46
2023/09/25 01:07:59;;;;;;;1.97;1.87;;;;;;;;;;5091382;28;20171;-49
2023/09/25 01:10:26;;;;;;;2.73;1.70;;;;;;;;;;5090289;28;20172;-45
2023/09/25 01:12:53;;;;;;;4.07;2.00;;;;;;;;;;5072832;28;20187;-47
2023/09/25 01:15:19;;;;;;;3.57;2.20;;;;;;;;;;5072190;28;20233;-46
2023/09/25 01:17:45;;;;;;;5.17;3.27;;;;;;;;;;5073786;28;20168;-48
2023/09/25 01:20:12;;;;;;;3.17;2.10;;;;;;;;;;5091456;28;20219;-47
2023/09/25 01:22:44;;;;;;;3.33;2.53;;;;;;;;;;5074720;28;20681;-49
2023/09/25 01:25:10;;;;;;;5.43;2.37;;;;;;;;;;5073919;28;20243;-45
2023/09/25 01:27:37;;;;;;;3.43;2.10;;;;;;;;;;5073297;28;20180;-46
2023/09/25 01:30:03;;;;;;;5.83;2.53;;;;;;;;;;5074311;28;20179;-48
2023/09/25 01:32:29;;;;;;;2.43;2.13;;;;;;;;;;5074591;28;20551;-49
2023/09/25 01:34:55;;;;;;;2.67;1.97;;;;;;;;;;5070023;28;20589;-49
2023/09/25 01:37:21;;;;;;;2.20;1.77;;;;;;;;;;5069608;28;20556;-48
2023/09/25 01:39:48;;;;;;;2.20;2.00;;;;;;;;;;5070321;28;20183;-48
2023/09/25 01:42:14;;;;;;;2.70;2.40;;;;;;;;;;5068963;28;20173;-46
2023/09/25 01:44:41;;;;;;;2.73;2.53;;;;;;;;;;5070223;28;20256;-46
2023/09/25 01:47:07;;;;;;;3.13;2.27;;;;;;;;;;5070783;28;20177;-48
2023/09/25 01:49:33;;;;;;;3.10;2.57;;;;;;;;;;5070075;28;20622;-48
2023/09/25 01:52:06;;;;;;;2.40;2.00;;;;;;;;;;5072025;28;20686;-48
2023/09/25 01:54:32;;;;;;;2.60;2.40;;;;;;;;;;5070747;28;20189;-46
2023/09/25 01:56:58;;;;;;;2.77;2.03;;;;;;;;;;5070729;28;20256;-46
2023/09/25 01:59:24;;;;;;;3.53;2.30;;;;;;;;;;5069978;28;20510;-46
2023/09/25 02:01:50;;;;;;;2.53;2.23;;;;;;;;;;5071748;28;20185;-46
2023/09/25 02:04:16;;;;;;;3.60;2.07;;;;;;;;;;5071829;28;20195;-51
2023/09/25 02:06:43;;;;;;;3.40;2.47;;;;;;;;;;5071327;28;20211;-48
2023/09/25 02:09:10;;;;;;;3.23;2.10;;;;;;;;;;5071500;28;20433;-48
2023/09/25 02:11:36;;;;;;;4.87;2.67;;;;;;;;;;5069734;28;20204;-47
2023/09/25 02:14:02;;;;;;;2.67;2.30;;;;;;;;;;5068510;28;20183;-49
2023/09/25 02:16:29;;;;;;;1.90;1.80;;;;;;;;;;5069201;28;20336;-46
2023/09/25 02:18:55;;;;;;;4.80;2.50;;;;;;;;;;5069558;28;20175;-47
2023/09/25 02:21:21;;;;;;;2.80;2.50;;;;;;;;;;5070063;28;20459;-47
2023/09/25 02:23:47;;;;;;;2.37;2.17;;;;;;;;;;5067846;28;20626;-48
2023/09/25 02:26:13;;;;;;;2.77;1.97;;;;;;;;;;5068147;28;20226;-48
2023/09/25 02:28:39;;;;;;;2.60;2.40;;;;;;;;;;5069613;28;20551;-47
2023/09/25 02:31:07;;;;;;;3.73;2.17;;;;;;;;;;5070480;28;20201;-46
2023/09/25 02:33:33;;;;;;;2.40;2.20;;;;;;;;;;5071355;28;20555;-48
2023/09/25 02:36:03;;;;;;;1.77;1.67;;;;;;;;;;5073121;28;20186;-49
2023/09/25 02:38:29;;;;;;;2.40;2.17;;;;;;;;;;5073014;28;20176;-47
2023/09/25 02:40:56;;;;;;;3.07;2.03;;;;;;;;;;5090842;28;20172;-53
2023/09/25 02:43:22;;;;;;;2.47;2.27;;;;;;;;;;5072610;28;20179;-48
2023/09/25 02:45:48;;;;;;;2.70;1.90;;;;;;;;;;5072980;28;20706;-50
2023/09/25 02:48:14;;;;;;;2.07;1.87;;;;;;;;;;5089393;28;20239;-47
2023/09/25 02:50:40;;;;;;;4.03;2.10;;;;;;;;;;5090016;28;20182;-48
2023/09/25 02:53:06;;;;;;;2.53;2.17;;;;;;;;;;5089361;28;20191;-46
2023/09/25 02:55:34;;;;;;;2.53;2.33;;;;;;;;;;5072958;28;20200;-47
2023/09/25 02:58:00;;;;;;;2.17;1.93;;;;;;;;;;5071602;28;20179;-47
2023/09/25 03:00:26;;;;;;;4.83;2.13;;;;;;;;;;5072098;28;20190;-47
2023/09/25 03:02:52;;;;;;;2.40;2.20;;;;;;;;;;5070388;28;20176;-47
2023/09/25 03:05:19;;;;;;;2.63;2.20;;;;;;;;;;5070080;28;20388;-47
2023/09/25 03:07:45;;;;;;;2.53;2.33;;;;;;;;;;5070757;28;20180;-48
2023/09/25 03:10:12;;;;;;;2.60;2.00;;;;;;;;;;5070964;28;20655;-46
2023/09/25 03:12:38;;;;;;;2.53;2.33;;;;;;;;;;5070768;28;20306;-50
2023/09/25 03:15:05;;;;;;;2.73;2.40;;;;;;;;;;5072218;28;20240;-47
2023/09/25 03:17:32;;;;;;;4.53;2.13;;;;;;;;;;5070764;28;20395;-46
2023/09/25 03:19:59;;;;;;;2.47;2.10;;;;;;;;;;5071445;28;20172;-46
2023/09/25 03:22:25;;;;;;;2.93;2.37;;;;;;;;;;5071983;28;20191;-46
2023/09/25 03:24:51;;;;;;;2.87;2.23;;;;;;;;;;5075118;28;20172;-49
2023/09/25 03:27:17;;;;;;;3.83;3.23;;;;;;;;;;5075005;28;20182;-46
2023/09/25 03:29:43;;;;;;;3.30;2.80;;;;;;;;;;5093228;28;20187;-46
2023/09/25 03:32:09;;;;;;;4.30;2.33;;;;;;;;;;5076676;28;20199;-48
2023/09/25 03:34:35;;;;;;;2.60;2.07;;;;;;;;;;5072636;28;20233;-47
2023/09/25 03:37:02;;;;;;;4.00;2.50;;;;;;;;;;5071941;28;20263;-46
2023/09/25 03:39:27;;;;;;;3.00;2.63;;;;;;;;;;5071819;28;20180;-46
2023/09/25 03:41:53;;;;;;;2.60;2.30;;;;;;;;;;5072911;28;20180;-47
2023/09/25 03:44:47;;;;;;;4.93;2.47;;;;;;;;;;5076549;28;20298;-50
2023/09/25 03:47:14;;;;;;;4.67;2.60;;;;;;;;;;5072258;28;20172;-49
2023/09/25 03:49:42;;;;;;;2.57;2.30;;;;;;;;;;5071463;28;20169;-47
2023/09/25 03:52:09;;;;;;;4.10;3.03;;;;;;;;;;5071857;28;20638;-46
2023/09/25 03:54:35;;;;;;;4.53;2.63;;;;;;;;;;5070083;28;20195;-48
2023/09/25 03:57:01;;;;;;;2.70;2.27;;;;;;;;;;5070023;28;20199;-46
2023/09/25 03:59:27;;;;;;;2.50;2.30;;;;;;;;;;5072012;28;20575;-46
2023/09/25 04:01:53;;;;;;;2.80;2.60;;;;;;;;;;5069506;28;20172;-48
2023/09/25 04:04:20;;;;;;;4.13;2.27;;;;;;;;;;5071665;28;20183;-47
2023/09/25 04:06:46;;;;;;;3.17;2.30;;;;;;;;;;5070881;28;20321;-49
2023/09/25 04:09:12;;;;;;;3.70;2.87;;;;;;;;;;5070686;28;20180;-48
2023/09/25 04:11:38;;;;;;;3.67;2.87;;;;;;;;;;5071226;28;20362;-46
2023/09/25 04:14:06;;;;;;;4.83;2.87;;;;;;;;;;5070367;28;20165;-48
2023/09/25 04:16:33;;;;;;;6.60;2.50;;;;;;;;;;5070555;28;20165;-48
2023/09/25 04:18:59;;;;;;;4.30;2.63;;;;;;;;;;5070409;28;20225;-47
2023/09/25 04:21:25;;;;;;;7.23;3.60;;;;;;;;;;5070270;28;20196;-46
2023/09/25 04:23:51;;;;;;;6.03;3.10;;;;;;;;;;5067820;28;20199;-48
2023/09/25 04:26:17;;;;;;;3.27;2.97;;;;;;;;;;5066076;28;20169;-48
2023/09/25 04:28:43;;;;;;;3.73;3.33;;;;;;;;;;5065069;28;20172;-47
2023/09/25 04:31:13;;;;;;;5.50;3.03;;;;;;;;;;5066557;28;20560;-47
2023/09/25 04:33:39;;;;;;;4.03;2.83;;;;;;;;;;5067824;28;20192;-46
2023/09/25 04:36:09;;;;;;;4.93;3.00;;;;;;;;;;5068575;28;20168;-46
2023/09/25 04:38:35;;;;;;;2.60;2.40;;;;;;;;;;5088140;28;20367;-47
2023/09/25 04:41:01;;;;;;;3.70;2.53;;;;;;;;;;5086810;28;20453;-48
2023/09/25 04:43:27;;;;;;;4.13;2.67;;;;;;;;;;5070164;28;20183;-45
2023/09/25 04:45:55;;;;;;;7.30;3.00;;;;;;;;;;5071344;28;20212;-47
2023/09/25 04:48:21;;;;;;;5.80;3.10;;;;;;;;;;5088288;28;20164;-50
2023/09/25 04:50:47;;;;;;;4.37;3.20;;;;;;;;;;5087404;28;20168;-51
2023/09/25 04:53:13;;;;;;;5.37;3.10;;;;;;;;;;5068998;28;20289;-50
2023/09/25 04:55:39;;;;;;;8.33;4.37;;;;;;;;;;5087748;28;20175;-46
2023/09/25 04:58:06;;;;;;;5.73;3.13;;;;;;;;;;5089374;28;20233;-50
2023/09/25 05:00:32;;;;;;;4.57;3.10;;;;;;;;;;5072539;28;20237;-46
2023/09/25 05:02:58;;;;;;;4.60;2.90;;;;;;;;;;5090645;28;20627;-46
2023/09/25 05:05:24;;;;;;;8.23;2.50;;;;;;;;;;5073722;28;20173;-47
2023/09/25 05:07:51;;;;;;;7.10;2.50;;;;;;;;;;5073706;28;20560;-49
2023/09/25 05:10:18;;;;;;;3.70;3.10;;;;;;;;;;5074000;28;20180;-46
2023/09/25 05:12:45;;;;;;;5.03;3.27;;;;;;;;;;5071885;28;20294;-46
2023/09/25 05:15:11;;;;;;;3.27;2.93;;;;;;;;;;5089066;28;20477;-49
2023/09/25 05:17:38;;;;;;;4.57;2.77;;;;;;;;;;5070632;28;20176;-47
2023/09/25 05:20:11;;;;;;;4.93;3.13;;;;;;;;;;5070735;28;20240;-48
2023/09/25 05:22:41;;;;;;;3.50;2.73;;;;;;;;;;5067979;28;20172;-47
2023/09/25 05:25:09;;;;;;;3.17;2.87;;;;;;;;;;5068727;28;20672;-48
2023/09/25 05:27:39;;;;;;;3.33;2.40;;;;;;;;;;5067763;28;20686;-47
2023/09/25 05:30:05;;;;;;;3.03;2.63;;;;;;;;;;5068150;28;20172;-47
2023/09/25 05:32:31;;;;;;;3.20;2.90;;;;;;;;;;5065945;28;20205;-50
2023/09/25 05:34:57;;;;;;;3.67;2.40;;;;;;;;;;5084818;28;20471;-47
2023/09/25 05:37:23;;;;;;;3.17;2.90;;;;;;;;;;5084908;28;20199;-47
2023/09/25 05:39:49;;;;;;;3.90;2.80;;;;;;;;;;5067355;28;20183;-48
2023/09/25 05:42:15;;;;;;;3.60;2.40;;;;;;;;;;5066785;28;20180;-50
2023/09/25 05:44:41;;;;;;;3.50;2.73;;;;;;;;;;5065113;28;20561;-49
2023/09/25 05:47:07;;;;;;;3.03;2.63;;;;;;;;;;5064138;28;20180;-49
2023/09/25 05:49:33;;;;;;;2.53;2.20;;;;;;;;;;5067025;28;20172;-46
2023/09/25 05:51:59;;;;;;;6.23;2.93;;;;;;;;;;5063351;28;20280;-47
2023/09/25 05:54:25;;;;;;;3.37;2.90;;;;;;;;;;5063740;28;20257;-51
2023/09/25 05:56:51;;;;;;;3.70;2.73;;;;;;;;;;5062656;28;20203;-48
2023/09/25 05:59:17;;;;;;;2.97;2.67;;;;;;;;;;5060877;28;20196;-48
2023/09/25 06:01:43;;;;;;;2.47;2.27;;;;;;;;;;5059987;28;20385;-48
2023/09/25 06:04:10;;;;;;;7.10;3.03;;;;;;;;;;5059700;28;20179;-50
2023/09/25 06:06:36;;;;;;;5.17;2.80;;;;;;;;;;5061694;28;20176;-51
2023/09/25 06:09:02;;;;;;;5.60;3.20;;;;;;;;;;5062229;28;20188;-49
2023/09/25 06:11:28;;;;;;;3.97;3.30;;;;;;;;;;5063248;28;20235;-46
2023/09/25 06:13:54;;;;;;;4.60;3.43;;;;;;;;;;5064916;28;20172;-46
2023/09/25 06:16:20;;;;;;;5.87;4.07;;;;;;;;;;5083926;28;20436;-46
2023/09/25 06:18:47;;;;;;;3.93;3.53;;;;;;;;;;5060999;28;20180;-48
2023/09/25 06:21:13;;;;;;;5.50;3.40;;;;;;;;;;5064462;28;20264;-50
2023/09/25 06:23:40;;;;;;;7.90;4.00;;;;;;;;;;5082292;28;20540;-46
2023/09/25 06:26:06;;;;;;;5.70;3.43;;;;;;;;;;5062923;28;20592;-49
2023/09/25 06:28:33;;;;;;;3.30;3.00;;;;;;;;;;5058803;28;20393;-45
2023/09/25 06:30:59;;;;;;;3.70;3.10;;;;;;;;;;5059258;28;20290;-47
2023/09/25 06:33:25;;;;;;;6.93;3.00;;;;;;;;;;5060489;28;20516;-50
2023/09/25 06:35:52;;;;;;;4.57;2.83;;;;;;;;;;5079988;28;20585;-48
2023/09/25 06:38:19;;;;;;;5.57;3.33;;;;;;;;;;5062729;28;20552;-47
2023/09/25 06:40:48;;;;;;;4.70;3.47;;;;;;;;;;5064604;28;20282;-46
2023/09/25 06:43:14;;;;;;;4.23;2.60;;;;;;;;;;5081635;28;20160;-48
2023/09/25 06:45:41;;;;;;;5.03;2.63;;;;;;;;;;5064899;28;20619;-49
2023/09/25 06:48:07;;;;;;;3.60;2.83;;;;;;;;;;5046704;28;20536;-50
2023/09/25 06:50:33;;;;;;;6.37;3.43;;;;;;;;;;5042591;28;20168;-46
2023/09/25 06:52:59;;;;;;;4.73;2.50;;;;;;;;;;5041045;28;20273;-47
2023/09/25 06:55:25;;;;;;;4.37;2.77;;;;;;;;;;5042585;28;20172;-47
2023/09/25 06:57:51;;;;;;;8.27;3.30;;;;;;;;;;5045304;28;20180;-46
2023/09/25 07:00:18;;;;;;;3.53;3.17;;;;;;;;;;5050090;28;20277;-46
2023/09/25 07:02:45;;;;;;;6.23;3.50;;;;;;;;;;5050297;28;20614;-47
2023/09/25 07:05:11;;;;;;;3.73;3.30;;;;;;;;;;5050723;28;20315;-47
2023/09/25 07:07:37;;;;;;;5.00;3.20;;;;;;;;;;5070006;28;20203;-46
2023/09/25 07:10:06;;;;;;;7.03;3.40;;;;;;;;;;5050457;28;20271;-46
2023/09/25 07:12:33;;;;;;;4.47;2.87;;;;;;;;;;5069198;28;20206;-47
2023/09/25 07:15:01;;;;;;;4.47;2.80;;;;;;;;;;5054680;28;20859;-46
2023/09/25 07:17:28;;;;;;;8.47;2.80;;;;;;;;;;5057061;28;20161;-47
2023/09/25 07:19:55;;;;;;;3.10;2.67;;;;;;;;;;5073217;28;20157;-46
2023/09/25 07:22:21;;;;;;;2.97;2.27;;;;;;;;;;5074748;28;20172;-48
2023/09/25 07:24:47;;;;;;;3.67;2.87;;;;;;;;;;5057406;28;20188;-46
2023/09/25 07:27:13;;;;;;;3.07;2.60;;;;;;;;;;5075228;28;20618;-48
2023/09/25 07:29:42;;;;;;;3.40;2.77;;;;;;;;;;5056746;28;20165;-47
2023/09/25 07:32:08;;;;;;;3.10;2.40;;;;;;;;;;5057799;28;20452;-47
2023/09/25 07:34:34;;;;;;;4.23;2.40;;;;;;;;;;5058364;28;20302;-46
2023/09/25 07:37:00;;;;;;;5.43;2.40;;;;;;;;;;5058584;28;20572;-49
2023/09/25 07:39:26;;;;;;;4.80;2.43;;;;;;;;;;5057292;28;20183;-48
2023/09/25 07:41:52;;;;;;;2.77;2.53;;;;;;;;;;5057058;28;20196;-50
2023/09/25 07:44:19;;;;;;;2.80;2.20;;;;;;;;;;5073924;28;20540;-50
2023/09/25 07:46:47;;;;;;;5.33;2.53;;;;;;;;;;5056191;28;20238;-51
2023/09/25 07:49:13;;;;;;;2.67;2.13;;;;;;;;;;5058929;28;20172;-47
2023/09/25 07:51:39;;;;;;;3.50;2.10;;;;;;;;;;5057753;28;20606;-49
2023/09/25 07:54:06;;;;;;;5.70;2.33;;;;;;;;;;5059256;28;20650;-46
2023/09/25 07:56:33;;;;;;;2.03;1.83;;;;;;;;;;5059553;28;20173;-49
2023/09/25 07:59:00;;;;;;;2.50;2.30;;;;;;;;;;5058741;28;20165;-48
2023/09/25 08:01:29;;;;;;;2.13;1.77;;;;;;;;;;5058250;28;20177;-49
2023/09/25 08:03:58;;;;;;;2.13;1.93;;;;;;;;;;5074032;28;20184;-46
2023/09/25 08:06:25;;;;;;;2.97;2.30;;;;;;;;;;5057841;28;20172;-50
2023/09/25 08:08:57;;;;;;;4.57;2.67;;;;;;;;;;5076485;28;20173;-48
2023/09/25 08:11:24;;;;;;;3.70;2.10;;;;;;;;;;5072310;28;20200;-46
2023/09/25 08:13:53;;;;;;;10.33;2.70;;;;;;;;;;5054882;28;20283;-46
2023/09/25 08:16:22;;;;;;;6.07;2.57;;;;;;;;;;5055968;28;20165;-47
2023/09/25 08:18:48;;;;;;;6.43;2.73;;;;;;;;;;5072709;28;20165;-51
2023/09/25 08:21:14;;;;;;;3.20;2.10;;;;;;;;;;5055932;28;20213;-47
2023/09/25 08:23:41;;;;;;;4.50;2.27;;;;;;;;;;5074512;28;20187;-48
2023/09/25 08:26:07;;;;;;;3.20;1.73;;;;;;;;;;5055950;28;20216;-47
2023/09/25 08:28:34;;;;;;;5.00;2.13;;;;;;;;;;5056747;28;20173;-51
2023/09/25 08:31:00;;;;;;;3.90;2.13;;;;;;;;;;5073483;28;20204;-46
2023/09/25 08:33:26;;;;;;;3.10;1.83;;;;;;;;;;5056496;28;20192;-47
2023/09/25 08:35:52;;;;;;;1.73;1.60;;;;;;;;;;5056628;28;20203;-47
2023/09/25 08:38:19;;;;;;;2.00;1.60;;;;;;;;;;5073918;28;20181;-47
2023/09/25 08:40:48;;;;;;;2.40;1.37;;;;;;;;;;5057526;28;20271;-46
2023/09/25 08:43:14;;;;;;;3.03;1.70;;;;;;;;;;5056197;28;20169;-48
2023/09/25 08:45:44;;;;;;;2.67;1.77;;;;;;;;;;5056551;28;20494;-46
2023/09/25 08:48:10;;;;;;;1.80;1.70;;;;;;;;;;5073737;28;20192;-47
2023/09/25 08:50:40;;;;;;;2.73;1.63;;;;;;;;;;5056412;28;20552;-48
2023/09/25 08:53:06;;;;;;;2.90;1.77;;;;;;;;;;5054463;28;20208;-49
2023/09/25 08:55:34;;;;;;;1.97;1.63;;;;;;;;;;5072588;28;20227;-48
2023/09/25 08:58:01;;;;;;;1.50;1.30;;;;;;;;;;5052670;28;20204;-49
2023/09/25 09:00:29;;;;;;;3.80;1.50;;;;;;;;;;5070145;28;20172;-47
2023/09/25 09:02:55;;;;;;;2.33;1.70;;;;;;;;;;5051312;28;20183;-48
2023/09/25 09:05:21;;;;;;;2.00;1.53;;;;;;;;;;5051950;28;20181;-47
2023/09/25 09:07:56;;;;;;;1.77;1.30;;;;;;;;;;5070762;28;20195;-46
2023/09/25 09:10:22;;;;;;;1.40;1.30;;;;;;;;;;5054943;28;20247;-49
2023/09/25 09:12:54;;;;;;;1.93;1.50;;;;;;;;;;5053442;28;20267;-46
2023/09/25 09:15:26;;;;;;;1.37;1.27;;;;;;;;;;5055113;28;20169;-47
2023/09/25 09:17:52;;;;;;;2.33;1.83;;;;;;;;;;5074738;28;20216;-48
2023/09/25 09:20:19;;;;;;;1.63;1.53;;;;;;;;;;5055985;28;20226;-46
2023/09/25 09:22:54;;;;;;;1.70;1.10;;;;;;;;;;5055297;28;20180;-47
2023/09/25 09:25:24;;;;;;;1.20;1.10;;;;;;;;;;5053995;28;20574;-46
2023/09/25 09:27:50;;;;;;;1.90;1.60;;;;;;;;;;5052476;28;20175;-47
2023/09/25 09:30:25;;;;;;;1.30;1.10;;;;;;;;;;5069473;28;20614;-48
2023/09/25 09:32:52;;;;;;;1.33;1.23;;;;;;;;;;5051306;28;20298;-48
2023/09/25 09:35:19;;;;;;;6.97;1.57;;;;;;;;;;5052025;28;20255;-46
2023/09/25 09:37:48;;;;;;;2.23;1.40;;;;;;;;;;5070029;28;20238;-47
2023/09/25 09:40:14;;;;;;;2.63;1.20;;;;;;;;;;5070850;28;20524;-48
2023/09/25 09:42:41;;;;;;;1.80;1.13;;;;;;;;;;5050944;28;20173;-48
2023/09/25 09:45:08;;;;;;;1.40;1.20;;;;;;;;;;5052084;28;20214;-47
2023/09/25 09:47:38;;;;;;;4.17;1.50;;;;;;;;;;5045222;28;20583;-47
2023/09/25 09:50:05;;;;;;;1.63;1.40;;;;;;;;;;5045913;28;20200;-50
2023/09/25 09:52:32;;;;;;;3.60;1.10;;;;;;;;;;5045356;28;20247;-47
2023/09/25 09:54:59;;;;;;;1.80;1.40;;;;;;;;;;5042160;28;20187;-48
2023/09/25 09:57:25;;;;;;;4.00;1.53;;;;;;;;;;5045885;28;20176;-49
2023/09/25 09:59:51;;;;;;;1.67;1.30;;;;;;;;;;5053433;28;20169;-46
2023/09/25 10:02:17;;;;;;;1.83;1.20;;;;;;;;;;5051283;28;20271;-47
2023/09/25 10:04:44;;;;;;;2.47;1.33;;;;;;;;;;5051186;28;20173;-47
2023/09/25 10:07:10;;;;;;;1.83;1.10;;;;;;;;;;5050292;28;20181;-46
2023/09/25 10:09:37;;;;;;;1.23;1.00;;;;;;;;;;5049008;28;20188;-51
2023/09/25 10:12:04;;;;;;;2.90;1.47;;;;;;;;;;5051697;28;20204;-47
2023/09/25 10:14:37;;;;;;;1.53;1.27;;;;;;;;;;5050600;28;20289;-47
2023/09/25 10:17:04;;;;;;;1.87;1.03;;;;;;;;;;5053043;28;20175;-48
2023/09/25 10:19:36;;;;;;;2.00;1.10;;;;;;;;;;5052225;28;20468;-50
2023/09/25 10:22:05;;;;;;;2.77;1.63;;;;;;;;;;5070990;28;20557;-48
2023/09/25 10:24:32;;;;;;;2.50;1.13;;;;;;;;;;5071084;28;20210;-50
2023/09/25 10:26:58;;;;;;;2.97;1.30;;;;;;;;;;5052732;28;20185;-48
2023/09/25 10:29:24;;;;;;;1.63;1.33;;;;;;;;;;5051550;28;20177;-47
2023/09/25 10:31:50;;;;;;;1.30;1.20;;;;;;;;;;5049955;28;20212;-49
2023/09/25 10:34:16;;;;;;;1.87;1.07;;;;;;;;;;5044845;28;20228;-48
2023/09/25 10:36:43;;;;;;;1.23;0.87;;;;;;;;;;5046463;28;20173;-50
2023/09/25 10:39:13;;;;;;;1.80;1.20;;;;;;;;;;5047453;28;20169;-48
2023/09/25 10:41:39;;;;;;;3.73;1.13;;;;;;;;;;5049635;28;20635;-49
2023/09/25 10:44:05;;;;;;;1.10;1.00;;;;;;;;;;5048513;28;20197;-50
2023/09/25 10:46:31;;;;;;;1.90;1.10;;;;;;;;;;5048018;28;20781;-49
2023/09/25 10:48:57;;;;;;;2.40;1.40;;;;;;;;;;5040046;28;20239;-50
2023/09/25 10:51:23;;;;;;;1.02;0.90;;;;;;;;;;5041028;28;20597;-47
2023/09/25 10:53:49;;;;;;;1.23;1.13;;;;;;;;;;5041499;28;20595;-47
2023/09/25 10:56:16;;;;;;;2.50;1.00;;;;;;;;;;5040026;28;20173;-47
2023/09/25 10:58:43;;;;;;;1.13;1.03;;;;;;;;;;5042684;28;20313;-49
2023/09/25 11:01:09;;;;;;;1.15;1.02;;;;;;;;;;5042168;28;20585;-47
2023/09/25 11:03:37;;;;;;;1.40;0.90;;;;;;;;;;5039849;28;20264;-47
2023/09/25 11:06:03;;;;;;;2.90;1.60;;;;;;;;;;5039835;28;20280;-47
2023/09/25 11:08:28;;;;;;;1.17;1.07;;;;;;;;;;5038082;28;20524;-47
2023/09/25 11:10:56;;;;;;;1.85;1.23;;;;;;;;;;5036742;28;20173;-49
2023/09/25 11:13:22;;;;;;;4.70;1.37;;;;;;;;;;5039645;28;20169;-48
2023/09/25 11:15:48;;;;;;;2.23;1.10;;;;;;;;;;5039205;28;20425;-49
2023/09/25 11:18:14;;;;;;;1.83;1.30;;;;;;;;;;5041984;28;20405;-48
2023/09/25 11:20:42;;;;;;;1.30;1.00;;;;;;;;;;5041231;28;20288;-47
2023/09/25 11:23:09;;;;;;;3.17;1.50;;;;;;;;;;5041496;28;20204;-47
2023/09/25 11:25:41;;;;;;;2.03;1.30;;;;;;;;;;5041520;28;20675;-47
2023/09/25 11:28:07;;;;;;;2.57;1.10;;;;;;;;;;5042679;28;20752;-46
2023/09/25 11:30:34;;;;;;;1.93;1.30;;;;;;;;;;5043892;28;20560;-48
2023/09/25 11:33:05;;;;;;;1.03;0.87;;;;;;;;;;5044946;28;20197;-47
2023/09/25 11:35:34;;;;;;;2.20;1.20;;;;;;;;;;5060653;28;20232;-48
2023/09/25 11:38:04;;;;;;;2.20;1.47;;;;;;;;;;5041903;28;20526;-47
2023/09/25 11:40:31;;;;;;;1.37;1.20;;;;;;;;;;5041147;28;20173;-48
2023/09/25 11:42:57;;;;;;;2.17;1.20;;;;;;;;;;5059714;28;20180;-49
2023/09/25 11:45:24;;;;;;;1.53;1.30;;;;;;;;;;5042524;28;20454;-50
2023/09/25 11:47:50;;;;;;;2.80;1.20;;;;;;;;;;5044777;28;20386;-47
2023/09/25 11:50:19;;;;;;;2.47;1.50;;;;;;;;;;5051840;28;20180;-49
2023/09/25 11:52:46;;;;;;;3.27;1.47;;;;;;;;;;5072655;28;20584;-49
2023/09/25 11:55:14;;;;;;;2.50;1.37;;;;;;;;;;5055457;28;20169;-47
2023/09/25 11:57:41;;;;;;;1.73;1.37;;;;;;;;;;5073749;28;20192;-47
2023/09/25 12:00:09;;;;;;;1.50;1.23;;;;;;;;;;5057415;28;20169;-50
2023/09/25 12:02:36;;;;;;;2.03;1.40;;;;;;;;;;5056654;28;20172;-49
2023/09/25 12:05:03;;;;;;;3.27;1.33;;;;;;;;;;5055625;28;20757;-48
2023/09/25 12:07:31;;;;;;;2.03;1.30;;;;;;;;;;5071172;28;20237;-48
2023/09/25 12:09:57;;;;;;;1.83;1.43;;;;;;;;;;5056004;28;20187;-50
2023/09/25 12:12:24;;;;;;;2.50;1.27;;;;;;;;;;5055793;28;20254;-49
2023/09/25 12:14:53;;;;;;;1.37;1.03;;;;;;;;;;5055192;28;20225;-50
2023/09/25 12:17:20;;;;;;;8.90;2.33;;;;;;;;;;5053510;28;20267;-47
2023/09/25 12:19:46;;;;;;;1.80;1.30;;;;;;;;;;5052164;28;20179;-47
2023/09/25 12:22:13;;;;;;;3.43;1.07;;;;;;;;;;5054460;28;20165;-51
2023/09/25 12:24:39;;;;;;;1.60;1.07;;;;;;;;;;5053832;28;20185;-48
2023/09/25 12:27:05;;;;;;;1.30;1.10;;;;;;;;;;5052295;28;20208;-51
2023/09/25 12:29:31;;;;;;;2.97;1.67;;;;;;;;;;5051593;28;20236;-49
2023/09/25 12:31:57;;;;;;;4.10;1.60;;;;;;;;;;5053519;28;20303;-46
2023/09/25 12:34:23;;;;;;;1.60;1.30;;;;;;;;;;5071895;28;20231;-49
2023/09/25 12:36:49;;;;;;;1.70;1.30;;;;;;;;;;5055565;28;20177;-49
2023/09/25 12:39:16;;;;;;;1.70;1.13;;;;;;;;;;5053903;28;20173;-51
2023/09/25 12:41:42;;;;;;;2.40;1.30;;;;;;;;;;5072239;28;20396;-47
2023/09/25 12:44:11;;;;;;;2.70;1.63;;;;;;;;;;5072349;28;20212;-49
2023/09/25 12:46:37;;;;;;;4.17;1.33;;;;;;;;;;5055067;28;20169;-49
2023/09/25 12:49:04;;;;;;;1.60;1.40;;;;;;;;;;5055505;28;20544;-49
2023/09/25 12:51:30;;;;;;;3.10;1.40;;;;;;;;;;5053885;28;20216;-49
2023/09/25 12:53:56;;;;;;;1.83;1.10;;;;;;;;;;5070550;28;20173;-47
2023/09/25 12:56:22;;;;;;;2.00;1.33;;;;;;;;;;5069476;28;20465;-47
2023/09/25 12:58:49;;;;;;;1.40;1.20;;;;;;;;;;5070545;28;20747;-52
2023/09/25 13:01:15;;;;;;;1.50;1.20;;;;;;;;;;5053614;28;20173;-50
2023/09/25 13:03:41;;;;;;;4.00;1.27;;;;;;;;;;5071110;28;20196;-48
2023/09/25 13:06:07;;;;;;;2.83;1.57;;;;;;;;;;5052830;28;20176;-51
2023/09/25 13:08:33;;;;;;;2.63;1.43;;;;;;;;;;5069321;28;20173;-48
2023/09/25 13:10:59;;;;;;;2.23;1.30;;;;;;;;;;5052667;28;20499;-48
2023/09/25 13:13:25;;;;;;;1.53;1.23;;;;;;;;;;5069547;28;20667;-47
2023/09/25 13:15:51;;;;;;;1.93;1.40;;;;;;;;;;5052677;28;20183;-50
2023/09/25 13:18:17;;;;;;;2.23;1.00;;;;;;;;;;5051893;28;20474;-49
2023/09/25 13:20:43;;;;;;;2.93;1.20;;;;;;;;;;5069692;28;20165;-49
2023/09/25 13:23:09;;;;;;;2.27;1.27;;;;;;;;;;5069539;28;20477;-51
2023/09/25 13:25:37;;;;;;;1.87;1.10;;;;;;;;;;5069542;28;20173;-51
2023/09/25 13:28:04;;;;;;;4.50;1.07;;;;;;;;;;5051388;28;20172;-50
2023/09/25 13:30:30;;;;;;;2.27;1.47;;;;;;;;;;5069422;28;20176;-48
2023/09/25 13:32:56;;;;;;;1.70;1.37;;;;;;;;;;5049257;28;20193;-52
2023/09/25 13:35:25;;;;;;;1.83;1.43;;;;;;;;;;5049294;28;20225;-49
2023/09/25 13:37:51;;;;;;;4.40;1.63;;;;;;;;;;5068259;28;20169;-49
2023/09/25 13:40:17;;;;;;;4.23;1.43;;;;;;;;;;5068006;28;20235;-49
2023/09/25 13:42:47;;;;;;;3.80;1.53;;;;;;;;;;5067814;28;20165;-52
2023/09/25 13:45:14;;;;;;;1.20;1.10;;;;;;;;;;5047150;28;20184;-49
2023/09/25 13:47:40;;;;;;;1.63;1.27;;;;;;;;;;5064716;28;20165;-49
2023/09/25 13:50:06;;;;;;;1.47;1.10;;;;;;;;;;5048195;28;20472;-50
2023/09/25 13:52:32;;;;;;;1.97;1.40;;;;;;;;;;5050636;28;20639;-51
2023/09/25 13:54:58;;;;;;;1.30;1.10;;;;;;;;;;5049963;28;20184;-47
2023/09/25 13:57:24;;;;;;;1.70;1.17;;;;;;;;;;5051361;28;20164;-50
2023/09/25 13:59:51;;;;;;;2.43;1.27;;;;;;;;;;5050447;28;20935;-50
2023/09/25 14:02:18;;;;;;;1.50;1.40;;;;;;;;;;5049442;28;20329;-47
2023/09/25 14:04:43;;;;;;;3.80;1.50;;;;;;;;;;5050623;28;20196;-52
2023/09/25 14:07:09;;;;;;;2.47;1.67;;;;;;;;;;5048234;28;20258;-48
2023/09/25 14:09:35;;;;;;;2.13;1.53;;;;;;;;;;5048066;28;20646;-49
2023/09/25 14:12:03;;;;;;;2.87;1.47;;;;;;;;;;5049045;28;20204;-50
2023/09/25 14:14:40;;;;;;;2.27;1.40;;;;;;;;;;5066392;28;20176;-49
2023/09/25 14:17:06;;;;;;;2.07;1.63;;;;;;;;;;5067074;28;20571;-50
2023/09/25 14:19:33;;;;;;;3.83;1.20;;;;;;;;;;5048609;28;20165;-50
2023/09/25 14:21:58;;;;;;;3.43;1.20;;;;;;;;;;5049251;28;20225;-49
2023/09/25 14:24:24;;;;;;;2.03;1.47;;;;;;;;;;5051071;28;20273;-48
2023/09/25 14:26:52;;;;;;;2.10;1.37;;;;;;;;;;5050982;28;20173;-48
2023/09/25 14:29:19;;;;;;;1.70;1.47;;;;;;;;;;5051019;28;20283;-47
2023/09/25 14:31:47;;;;;;;1.93;1.40;;;;;;;;;;5050658;28;20201;-49
2023/09/25 14:34:13;;;;;;;3.73;1.67;;;;;;;;;;5044706;28;20542;-48
2023/09/25 14:36:40;;;;;;;3.00;1.40;;;;;;;;;;5037890;28;20181;-47
2023/09/25 14:39:06;;;;;;;2.33;1.50;;;;;;;;;;5038888;28;20207;-50
2023/09/25 14:41:32;;;;;;;1.63;1.23;;;;;;;;;;5037819;28;20416;-48